KEOK/EOK METAR and TAF weather

Enter ICAO airport designator
Station Type Date Time Source
KEOK METAR 2022/11/27 09:35 UTC NOAA

KEOK 270935Z AUTO 32007KT 6SM BR FEW007 SCT030 OVC065 06/06 A2951 RMK A01


Station Type Date Time Source
KEOK Decoded METAR 2022/11/27 09:35 UTC NOAA

Keokuk Municipal, IA, United States (KEOK) 40-28N 091-26W
Nov 27, 2022 - 04:35 AM EST / 2022.11.27 0935 UTC
Wind: from the NW (320 degrees) at 8 MPH (7 KT):0
Visibility: 6 mile(s):0
Sky conditions: overcast
Weather: mist
Temperature: 42 F (6 C)
Dew Point: 42 F (6 C)
Relative Humidity: 100%
Pressure (altimeter): 29.51 in. Hg (999 hPa)
ob: KEOK 270935Z AUTO 32007KT 6SM BR FEW007 SCT030 OVC065 06/06 A2951 RMK A01
cycle: 9

Station Type Date Time Source
KEOK TAF UTC NOAA

Error!

Example: see airport list